createdAt,value
2024-01-24T00:00:10.165Z,2.00
2024-01-24T00:02:38.670Z,2.00
2024-01-24T00:05:07.992Z,1.85
2024-01-24T00:07:36.204Z,2.08
2024-01-24T00:10:04.896Z,1.83
2024-01-24T00:12:34.614Z,1.52
2024-01-24T00:15:02.813Z,1.65
2024-01-24T00:17:30.990Z,1.73
2024-01-24T00:19:59.138Z,1.90
2024-01-24T00:22:27.265Z,1.85
2024-01-24T00:24:55.384Z,1.73
2024-01-24T00:27:23.669Z,1.90
2024-01-24T00:29:53.553Z,1.80
2024-01-24T00:32:21.755Z,1.77
2024-01-24T00:34:49.969Z,1.95
2024-01-24T00:37:18.197Z,1.83
2024-01-24T00:39:48.010Z,1.73
2024-01-24T00:42:16.167Z,1.90
2024-01-24T00:44:44.552Z,1.75
2024-01-24T00:47:14.077Z,1.75
2024-01-24T00:49:42.286Z,1.77
2024-01-24T00:52:10.457Z,1.77
2024-01-24T00:54:38.671Z,1.80
2024-01-24T00:57:07.022Z,1.80
2024-01-24T00:59:35.195Z,1.90
2024-01-24T01:02:03.931Z,1.98
2024-01-24T01:04:33.565Z,1.80
2024-01-24T01:07:01.815Z,1.83
2024-01-24T01:09:29.952Z,1.85
2024-01-24T01:11:58.183Z,1.95
2024-01-24T01:14:26.288Z,1.83
2024-01-24T01:16:54.777Z,1.80
2024-01-24T01:19:23.182Z,2.08
2024-01-24T01:21:53.111Z,1.92
2024-01-24T01:24:21.317Z,1.83
2024-01-24T01:26:49.413Z,1.90
2024-01-24T01:29:17.534Z,1.98
2024-01-24T01:31:45.698Z,1.92
2024-01-24T01:34:13.977Z,2.03
2024-01-24T01:36:42.147Z,1.80
2024-01-24T01:39:12.096Z,2.00
2024-01-24T01:41:40.285Z,2.00
2024-01-24T01:44:08.403Z,1.85
2024-01-24T01:46:37.392Z,1.73
2024-01-24T01:49:05.680Z,2.00
2024-01-24T01:51:33.932Z,1.70
2024-01-24T01:54:02.081Z,1.63
2024-01-24T01:56:31.621Z,1.90
2024-01-24T01:58:59.801Z,2.08
2024-01-24T02:01:27.990Z,1.98
2024-01-24T02:04:57.870Z,1.73
2024-01-24T02:07:26.139Z,1.92
2024-01-24T02:09:54.912Z,1.70
2024-01-24T02:12:25.401Z,2.10
2024-01-24T02:14:55.106Z,1.95
2024-01-24T02:17:23.272Z,1.90
2024-01-24T02:19:51.588Z,1.85
2024-01-24T02:22:20.089Z,1.80
2024-01-24T02:24:49.771Z,1.70
2024-01-24T02:27:18.006Z,1.88
2024-01-24T02:29:46.591Z,1.77
2024-01-24T02:32:14.694Z,1.75
2024-01-24T02:34:42.922Z,1.85
2024-01-24T02:37:11.285Z,1.58
2024-01-24T02:39:39.576Z,1.88
2024-01-24T02:42:09.797Z,1.80
2024-01-24T02:44:38.009Z,1.95
2024-01-24T02:47:06.324Z,2.03
2024-01-24T02:49:34.720Z,2.00
2024-01-24T02:52:03.402Z,1.75
2024-01-24T02:54:31.558Z,1.83
2024-01-24T02:56:59.691Z,1.80
2024-01-24T02:59:29.207Z,1.80
2024-01-24T03:01:57.380Z,2.03
2024-01-24T03:04:25.650Z,1.80
2024-01-24T03:06:56.502Z,1.70
2024-01-24T03:09:24.677Z,2.10
2024-01-24T03:11:53.062Z,1.80
2024-01-24T03:14:22.387Z,2.08
2024-01-24T03:16:51.883Z,1.90
2024-01-24T03:19:20.066Z,1.73
2024-01-24T03:21:48.954Z,2.13
2024-01-24T03:24:17.134Z,2.00
2024-01-24T03:26:45.332Z,2.00
2024-01-24T03:29:13.512Z,1.90
2024-01-24T03:31:44.325Z,1.67
2024-01-24T03:34:14.636Z,1.65
2024-01-24T03:36:43.017Z,1.90
2024-01-24T03:39:12.297Z,1.83
2024-01-24T03:41:40.637Z,1.90
2024-01-24T03:44:08.861Z,1.80
2024-01-24T03:46:37.040Z,2.05
2024-01-24T03:49:22.927Z,1.83
2024-01-24T03:51:51.229Z,1.90
2024-01-24T03:54:19.497Z,1.58
2024-01-24T03:56:47.632Z,1.80
2024-01-24T03:59:15.826Z,1.70
2024-01-24T04:01:44.136Z,1.90
2024-01-24T04:04:12.375Z,1.88
2024-01-24T04:06:42.190Z,1.90
2024-01-24T04:09:10.398Z,2.03
2024-01-24T04:11:39.825Z,2.00
2024-01-24T04:14:09.213Z,1.67
2024-01-24T04:16:40.727Z,1.60
2024-01-24T04:19:18.123Z,1.90
2024-01-24T04:21:47.745Z,1.80
2024-01-24T04:24:16.052Z,1.90
2024-01-24T04:26:44.527Z,1.65
2024-01-24T04:29:13.878Z,1.60
2024-01-24T04:31:43.363Z,1.55
2024-01-24T04:34:11.760Z,1.50
2024-01-24T04:36:40.041Z,1.70
2024-01-24T04:39:09.596Z,1.75
2024-01-24T04:41:40.800Z,1.70
2024-01-24T04:44:09.580Z,1.85
2024-01-24T04:46:37.691Z,1.70
2024-01-24T04:49:05.888Z,1.80
2024-01-24T04:51:34.334Z,1.63
2024-01-24T04:54:02.895Z,1.70
2024-01-24T04:56:32.537Z,1.73
2024-01-24T04:59:02.170Z,1.40
2024-01-24T05:01:30.744Z,1.70
2024-01-24T05:03:59.904Z,1.60
2024-01-24T05:06:28.376Z,1.67
2024-01-24T05:08:56.615Z,1.75
2024-01-24T05:11:24.840Z,1.65
2024-01-24T05:13:55.196Z,1.60
2024-01-24T05:16:23.401Z,1.80
2024-01-24T05:18:55.871Z,1.30
2024-01-24T05:21:24.170Z,1.42
2024-01-24T05:23:53.347Z,1.50
2024-01-24T05:26:21.564Z,1.73
2024-01-24T05:28:49.689Z,1.63
2024-01-24T05:31:19.958Z,1.73
2024-01-24T05:34:00.303Z,1.75
2024-01-24T05:36:28.827Z,1.92
2024-01-24T05:38:57.012Z,1.35
2024-01-24T05:41:24.197Z,1.45
2024-01-24T05:43:52.340Z,1.80
2024-01-24T05:46:21.909Z,1.40
2024-01-24T05:48:50.248Z,1.60
2024-01-24T05:51:18.614Z,1.55
2024-01-24T05:53:46.755Z,1.60
2024-01-24T05:56:14.847Z,1.45
2024-01-24T05:58:42.995Z,1.60
2024-01-24T06:01:11.534Z,1.73
2024-01-24T06:03:42.034Z,1.67
2024-01-24T06:06:10.456Z,1.52
2024-01-24T06:08:38.760Z,1.50
2024-01-24T06:11:06.999Z,1.25
2024-01-24T06:13:35.864Z,1.50
2024-01-24T06:16:04.158Z,1.35
2024-01-24T06:18:32.396Z,1.35
2024-01-24T06:21:02.289Z,1.67
2024-01-24T06:23:30.515Z,1.50
2024-01-24T06:25:58.758Z,1.65
2024-01-24T06:28:26.983Z,1.40
2024-01-24T06:30:55.229Z,1.45
2024-01-24T06:33:25.541Z,1.60
2024-01-24T06:35:53.924Z,1.48
2024-01-24T06:38:23.528Z,1.52
2024-01-24T06:40:51.723Z,1.70
2024-01-24T06:43:20.077Z,1.30
2024-01-24T06:45:48.229Z,1.55
2024-01-24T06:48:16.561Z,1.30
2024-01-24T06:50:44.930Z,1.83
2024-01-24T06:53:15.889Z,1.80
2024-01-24T06:55:46.188Z,1.60
2024-01-24T06:58:14.323Z,1.50
2024-01-24T07:00:43.233Z,1.50
2024-01-24T07:03:11.778Z,1.67
2024-01-24T07:05:39.984Z,1.70
2024-01-24T07:08:08.482Z,1.75
2024-01-24T07:10:36.592Z,1.80
2024-01-24T07:13:06.466Z,1.55
2024-01-24T07:15:34.738Z,1.70
2024-01-24T07:18:03.201Z,1.60
2024-01-24T07:20:31.495Z,1.63
2024-01-24T07:22:59.619Z,1.70
2024-01-24T07:25:27.721Z,1.67
2024-01-24T07:27:55.940Z,1.70
2024-01-24T07:30:26.228Z,1.70
2024-01-24T07:32:54.536Z,1.48
2024-01-24T07:35:22.763Z,1.40
2024-01-24T07:37:50.885Z,1.42
2024-01-24T07:40:19.464Z,1.52
2024-01-24T07:42:47.730Z,1.70
2024-01-24T07:45:16.375Z,1.67
2024-01-24T07:47:46.443Z,1.40
2024-01-24T07:50:14.739Z,1.45
2024-01-24T07:52:43.542Z,1.45
2024-01-24T07:55:13.249Z,1.70
2024-01-24T07:57:42.050Z,1.60
2024-01-24T08:00:17.286Z,1.50
2024-01-24T08:02:49.045Z,1.60
2024-01-24T08:05:19.898Z,1.63
2024-01-24T08:07:48.114Z,1.70
2024-01-24T08:10:16.935Z,1.70
2024-01-24T08:12:45.311Z,1.85
2024-01-24T08:15:13.674Z,1.70
2024-01-24T08:17:42.059Z,2.10
2024-01-24T08:20:12.873Z,1.75
2024-01-24T08:22:41.095Z,1.60
2024-01-24T08:25:10.376Z,1.88
2024-01-24T08:27:38.950Z,1.63
2024-01-24T08:30:08.676Z,1.65
2024-01-24T08:32:41.726Z,1.58
2024-01-24T08:35:20.690Z,1.80
2024-01-24T08:37:48.861Z,1.50
2024-01-24T08:40:18.355Z,1.90
2024-01-24T08:42:47.161Z,1.50
2024-01-24T08:45:15.475Z,1.70
2024-01-24T08:47:45.055Z,1.63
2024-01-24T08:50:13.699Z,1.98
2024-01-24T08:52:43.237Z,1.60
2024-01-24T08:55:14.837Z,1.90
2024-01-24T08:57:43.892Z,1.63
2024-01-24T09:00:12.958Z,1.50
2024-01-24T09:02:41.489Z,1.65
2024-01-24T09:05:48.354Z,1.63
2024-01-24T09:08:19.872Z,1.52
2024-01-24T09:10:48.011Z,1.70
2024-01-24T09:13:21.889Z,1.60
2024-01-24T09:15:50.297Z,1.38
2024-01-24T09:18:19.190Z,1.58
2024-01-24T09:20:47.891Z,1.67
2024-01-24T09:23:16.526Z,1.67
2024-01-24T09:25:46.270Z,1.42
2024-01-24T09:28:14.520Z,1.50
2024-01-24T09:30:42.773Z,1.50
2024-01-24T09:33:11.230Z,1.50
2024-01-24T09:35:39.603Z,1.48
2024-01-24T09:38:07.866Z,1.58
2024-01-24T09:40:36.082Z,1.38
2024-01-24T09:43:06.388Z,1.50
2024-01-24T09:45:34.724Z,1.65
2024-01-24T09:48:03.079Z,1.20
2024-01-24T09:50:31.330Z,1.50
2024-01-24T09:52:59.857Z,1.55
2024-01-24T09:55:28.930Z,1.50
2024-01-24T09:57:57.347Z,1.60
2024-01-24T10:00:27.100Z,1.33
2024-01-24T10:02:55.324Z,1.40
2024-01-24T10:05:25.895Z,1.40
2024-01-24T10:07:54.240Z,1.33
2024-01-24T10:10:22.447Z,1.30
2024-01-24T10:12:50.902Z,1.50
2024-01-24T10:15:19.430Z,1.40
2024-01-24T10:17:50.349Z,1.50
2024-01-24T10:20:43.940Z,1.27
2024-01-24T10:23:21.348Z,1.55
2024-01-24T10:25:49.914Z,1.30
2024-01-24T10:28:19.007Z,1.23
2024-01-24T10:30:48.644Z,1.40
2024-01-24T10:33:19.629Z,1.40
2024-01-24T10:35:48.595Z,1.50
2024-01-24T10:38:21.423Z,1.60
2024-01-24T10:40:49.713Z,1.42
2024-01-24T10:43:18.503Z,1.38
2024-01-24T10:45:47.159Z,1.30
2024-01-24T10:48:15.552Z,1.20
2024-01-24T10:50:45.534Z,1.20
2024-01-24T10:53:14.277Z,1.40
2024-01-24T10:55:42.822Z,1.35
2024-01-24T10:58:11.819Z,1.35
2024-01-24T11:00:40.664Z,1.50
2024-01-24T11:03:09.032Z,1.55
2024-01-24T11:05:42.167Z,1.40
2024-01-24T11:08:13.808Z,1.25
2024-01-24T11:10:42.782Z,1.50
2024-01-24T11:13:11.265Z,1.30
2024-01-24T11:15:41.790Z,1.45
2024-01-24T11:18:26.151Z,1.20
2024-01-24T11:20:55.029Z,1.42
2024-01-24T11:23:44.755Z,1.23
2024-01-24T11:26:13.424Z,1.25
2024-01-24T11:28:41.574Z,1.40
2024-01-24T11:31:10.352Z,1.48
2024-01-24T11:33:38.765Z,1.33
2024-01-24T11:36:08.735Z,1.40
2024-01-24T11:38:41.318Z,1.42
2024-01-24T11:41:24.003Z,1.50
2024-01-24T11:43:52.543Z,1.50
2024-01-24T11:46:21.145Z,1.13
2024-01-24T11:48:49.474Z,1.10
2024-01-24T11:51:18.995Z,1.33
2024-01-24T11:53:48.585Z,1.52
2024-01-24T11:56:16.930Z,1.10
2024-01-24T11:58:45.272Z,1.00
2024-01-24T12:01:14.052Z,1.30
2024-01-24T12:03:48.059Z,1.30
2024-01-24T12:06:16.366Z,1.13
2024-01-24T12:08:47.979Z,1.13
2024-01-24T12:11:19.896Z,1.20
2024-01-24T12:13:48.198Z,1.40
2024-01-24T12:16:16.490Z,1.23
2024-01-24T12:18:45.224Z,1.20
2024-01-24T12:21:14.008Z,1.30
2024-01-24T12:23:49.101Z,1.13
2024-01-24T12:26:17.672Z,1.00
2024-01-24T12:28:49.371Z,1.10
2024-01-24T12:31:18.099Z,1.10
2024-01-24T12:33:47.037Z,1.13
2024-01-24T12:36:15.275Z,1.20
2024-01-24T12:38:43.602Z,1.20
2024-01-24T12:41:11.939Z,1.30
2024-01-24T12:43:40.199Z,1.30
2024-01-24T12:46:10.773Z,1.15
2024-01-24T12:48:39.738Z,1.20
2024-01-24T12:52:04.366Z,1.25
2024-01-24T12:54:32.716Z,1.10
2024-01-24T12:57:00.850Z,1.05
2024-01-24T12:59:30.178Z,1.08
2024-01-24T13:02:00.839Z,1.00
2024-01-24T13:04:29.886Z,1.20
2024-01-24T13:06:58.253Z,1.13
2024-01-24T13:09:28.034Z,1.10
2024-01-24T13:11:57.415Z,1.05
2024-01-24T13:14:25.947Z,1.23
2024-01-24T13:16:54.036Z,1.30
2024-01-24T13:19:25.543Z,1.10
2024-01-24T13:21:53.919Z,1.00
2024-01-24T13:24:22.736Z,1.10
2024-01-24T13:26:51.096Z,1.02
2024-01-24T13:29:19.694Z,1.05
2024-01-24T13:31:48.991Z,1.10
2024-01-24T13:34:18.011Z,1.10
2024-01-24T13:37:06.166Z,1.15
2024-01-24T13:39:35.760Z,1.30
2024-01-24T13:42:05.440Z,1.00
2024-01-24T13:44:34.355Z,1.17
2024-01-24T13:47:02.594Z,1.10
2024-01-24T13:49:30.841Z,1.15
2024-01-24T13:52:00.567Z,1.30
2024-01-24T13:54:30.087Z,1.15
2024-01-24T13:56:58.484Z,1.30
2024-01-24T13:59:26.883Z,1.20
2024-01-24T14:01:59.983Z,1.40
2024-01-24T14:04:29.518Z,1.30
2024-01-24T14:07:16.639Z,1.48
2024-01-24T14:09:46.287Z,1.40
2024-01-24T14:12:14.572Z,1.30
2024-01-24T14:14:43.751Z,1.40
2024-01-24T14:17:13.441Z,1.30
2024-01-24T14:19:41.719Z,1.50
2024-01-24T14:22:10.077Z,1.50
2024-01-24T14:24:38.307Z,1.40
2024-01-24T14:27:08.088Z,1.85
2024-01-24T14:29:37.261Z,1.60
2024-01-24T14:32:07.458Z,1.65
2024-01-24T14:34:35.755Z,1.50
2024-01-24T14:37:10.222Z,1.48
2024-01-24T14:39:40.762Z,1.50
2024-01-24T14:42:10.834Z,1.65
2024-01-24T14:44:39.050Z,1.52
2024-01-24T14:47:07.440Z,1.50
2024-01-24T14:49:35.633Z,1.50
2024-01-24T14:52:04.864Z,1.55
2024-01-24T14:54:33.364Z,1.50
2024-01-24T14:57:01.724Z,1.65
2024-01-24T14:59:31.541Z,1.50
2024-01-24T15:01:59.722Z,1.80
2024-01-24T15:04:29.014Z,2.10
2024-01-24T15:06:57.311Z,1.70
2024-01-24T15:09:25.671Z,1.65
2024-01-24T15:11:54.256Z,1.85
2024-01-24T15:14:22.546Z,2.20
2024-01-24T15:16:52.737Z,2.45
2024-01-24T15:19:20.897Z,2.05
2024-01-24T15:21:50.008Z,2.05
2024-01-24T15:24:19.807Z,2.17
2024-01-24T15:26:48.032Z,1.83
2024-01-24T15:29:16.385Z,2.03
2024-01-24T15:31:44.686Z,2.15
2024-01-24T15:34:16.105Z,2.00
2024-01-24T15:36:45.257Z,2.00
2024-01-24T15:39:15.276Z,2.05
2024-01-24T15:41:43.518Z,1.98
2024-01-24T15:44:12.021Z,1.70
2024-01-24T15:46:40.236Z,1.88
2024-01-24T15:49:11.678Z,1.70
2024-01-24T15:51:41.471Z,1.73
2024-01-24T15:54:10.509Z,1.90
2024-01-24T15:56:38.706Z,1.60
2024-01-24T15:59:06.943Z,1.70
2024-01-24T16:01:35.353Z,2.20
2024-01-24T16:04:05.092Z,1.83
2024-01-24T16:07:26.095Z,1.98
2024-01-24T16:09:55.921Z,2.10
2024-01-24T16:12:24.192Z,2.05
2024-01-24T16:14:52.418Z,1.70
2024-01-24T16:17:20.661Z,1.58
2024-01-24T16:19:49.333Z,1.88
2024-01-24T16:23:13.222Z,1.80
2024-01-24T16:25:42.773Z,1.52
2024-01-24T16:28:12.777Z,1.58
2024-01-24T16:30:44.385Z,1.85
2024-01-24T16:33:12.915Z,1.50
2024-01-24T16:35:41.143Z,1.77
2024-01-24T16:38:09.684Z,1.83
2024-01-24T16:40:37.828Z,1.98
2024-01-24T16:43:07.646Z,1.83
2024-01-24T16:45:35.953Z,1.70
2024-01-24T16:48:04.191Z,1.80
2024-01-24T16:50:32.344Z,1.85
2024-01-24T16:53:00.504Z,1.90
2024-01-24T16:55:29.232Z,1.45
2024-01-24T16:57:57.935Z,1.70
2024-01-24T17:00:27.665Z,1.80
2024-01-24T17:02:58.486Z,1.40
2024-01-24T17:05:27.384Z,1.63
2024-01-24T17:07:55.582Z,2.10
2024-01-24T17:10:23.833Z,1.73
2024-01-24T17:12:52.070Z,1.50
2024-01-24T17:15:20.429Z,2.00
2024-01-24T17:17:49.969Z,1.60
2024-01-24T17:20:18.643Z,1.52
2024-01-24T17:23:16.067Z,1.70
2024-01-24T17:25:44.246Z,1.55
2024-01-24T17:28:12.418Z,1.70
2024-01-24T17:30:41.270Z,1.65
2024-01-24T17:33:10.980Z,1.63
2024-01-24T17:35:39.757Z,1.55
2024-01-24T17:38:08.039Z,1.70
2024-01-24T17:40:36.201Z,1.70
2024-01-24T17:43:04.517Z,1.35
2024-01-24T17:45:32.882Z,1.25
2024-01-24T17:48:01.123Z,1.50
2024-01-24T17:50:30.760Z,1.58
2024-01-24T17:53:35.954Z,1.55
2024-01-24T17:56:04.364Z,1.52
2024-01-24T17:58:34.325Z,1.80
2024-01-24T18:01:03.902Z,1.70
2024-01-24T18:03:32.273Z,1.58
2024-01-24T18:06:01.957Z,1.70
2024-01-24T18:08:30.070Z,1.67
2024-01-24T18:10:59.768Z,1.75
2024-01-24T18:13:29.067Z,1.42
2024-01-24T18:15:57.942Z,1.70
2024-01-24T18:18:27.358Z,1.70
2024-01-24T18:20:56.150Z,1.98
2024-01-24T18:23:29.748Z,1.92
2024-01-24T18:25:58.235Z,1.90
2024-01-24T18:28:26.455Z,1.83
2024-01-24T18:30:54.576Z,2.08
2024-01-24T18:33:23.567Z,2.00
2024-01-24T18:35:52.767Z,1.90
2024-01-24T18:38:20.910Z,1.90
2024-01-24T18:40:50.470Z,1.80
2024-01-24T18:43:18.964Z,1.85
2024-01-24T18:45:47.324Z,2.00
2024-01-24T18:48:19.763Z,2.40
2024-01-24T18:50:48.364Z,1.75
2024-01-24T18:53:16.742Z,1.95
2024-01-24T18:55:45.003Z,2.00
2024-01-24T18:58:14.995Z,2.22
2024-01-24T19:00:43.379Z,2.22
2024-01-24T19:03:12.361Z,2.40
2024-01-24T19:05:40.924Z,3.00
2024-01-24T19:08:11.973Z,2.30
2024-01-24T19:10:40.446Z,2.53
2024-01-24T19:13:08.640Z,2.50
2024-01-24T19:15:38.198Z,2.10
2024-01-24T19:18:14.022Z,2.03
2024-01-24T19:20:45.414Z,2.50
2024-01-24T19:23:21.586Z,2.40
2024-01-24T19:25:51.055Z,2.33
2024-01-24T19:28:23.740Z,2.42
2024-01-24T19:30:53.557Z,2.20
2024-01-24T19:33:21.805Z,2.22
2024-01-24T19:35:50.207Z,2.63
2024-01-24T19:38:19.715Z,2.30
2024-01-24T19:40:47.912Z,2.30
2024-01-24T19:43:16.035Z,1.98
2024-01-24T19:45:44.591Z,2.30
2024-01-24T19:48:14.955Z,1.95
2024-01-24T19:50:45.042Z,2.20
2024-01-24T19:53:27.545Z,2.60
2024-01-24T19:56:02.447Z,2.40
2024-01-24T19:58:31.968Z,2.55
2024-01-24T20:01:05.181Z,2.88
2024-01-24T20:03:35.156Z,3.05
2024-01-24T20:06:03.908Z,3.33
2024-01-24T20:08:32.037Z,3.33
2024-01-24T20:11:00.300Z,3.72
2024-01-24T20:13:29.140Z,3.33
2024-01-24T20:15:58.853Z,3.35
2024-01-24T20:18:27.547Z,3.30
2024-01-24T20:20:57.190Z,3.30
2024-01-24T20:23:27.824Z,3.40
2024-01-24T20:25:57.555Z,3.58
2024-01-24T20:28:26.440Z,3.30
2024-01-24T20:30:54.674Z,3.35
2024-01-24T20:33:23.223Z,3.67
2024-01-24T20:35:54.075Z,3.45
2024-01-24T20:38:24.490Z,3.70
2024-01-24T20:40:52.598Z,3.35
2024-01-24T20:43:20.835Z,3.25
2024-01-24T20:45:49.483Z,3.25
2024-01-24T20:48:18.367Z,3.25
2024-01-24T20:50:47.117Z,3.80
2024-01-24T20:53:18.913Z,3.75
2024-01-24T20:55:48.598Z,3.55
2024-01-24T20:58:16.781Z,3.30
2024-01-24T21:00:45.175Z,2.97
2024-01-24T21:03:13.572Z,3.17
2024-01-24T21:05:41.954Z,2.80
2024-01-24T21:08:10.387Z,3.38
2024-01-24T21:10:42.236Z,3.10
2024-01-24T21:13:18.547Z,3.35
2024-01-24T21:15:46.761Z,3.20
2024-01-24T21:18:15.515Z,3.53
2024-01-24T21:20:43.801Z,3.85
2024-01-24T21:23:12.518Z,3.33
2024-01-24T21:25:40.926Z,3.47
2024-01-24T21:28:09.753Z,3.58
2024-01-24T21:30:39.466Z,3.50
2024-01-24T21:33:07.639Z,3.65
2024-01-24T21:35:36.039Z,3.55
2024-01-24T21:38:04.345Z,3.80
2024-01-24T21:40:32.520Z,3.30
2024-01-24T21:43:00.745Z,3.70
2024-01-24T21:45:28.896Z,3.78
2024-01-24T21:47:58.530Z,3.90
2024-01-24T21:50:26.807Z,3.85
2024-01-24T21:52:55.014Z,3.75
2024-01-24T21:55:23.233Z,4.00
2024-01-24T21:57:53.539Z,3.83
2024-01-24T22:00:21.987Z,3.40
2024-01-24T22:02:50.259Z,3.80
2024-01-24T22:05:20.409Z,3.88
2024-01-24T22:07:50.853Z,3.70
2024-01-24T22:10:19.421Z,3.60
2024-01-24T22:12:47.724Z,3.88
2024-01-24T22:15:16.073Z,3.85
2024-01-24T22:17:44.334Z,3.70
2024-01-24T22:20:13.521Z,3.95
2024-01-24T22:25:16.264Z,3.75
2024-01-24T22:27:44.525Z,4.05
2024-01-24T22:30:14.069Z,3.70
2024-01-24T22:32:42.274Z,3.67
2024-01-24T22:35:11.014Z,4.22
2024-01-24T22:37:39.571Z,4.38
2024-01-24T22:40:10.488Z,3.67
2024-01-24T22:42:38.705Z,4.40
2024-01-24T22:45:07.613Z,4.43
2024-01-24T22:47:35.744Z,4.28
2024-01-24T22:50:04.935Z,4.10
2024-01-24T22:52:33.389Z,4.40
2024-01-24T22:55:01.615Z,3.95
2024-01-24T22:57:31.222Z,3.92
2024-01-24T22:59:59.433Z,4.32
2024-01-24T23:02:27.571Z,4.00
2024-01-24T23:04:56.930Z,4.35
2024-01-24T23:07:25.098Z,4.03
2024-01-24T23:09:53.702Z,4.55
2024-01-24T23:12:21.999Z,4.38
2024-01-24T23:14:51.592Z,4.15
2024-01-24T23:17:19.644Z,4.22
2024-01-24T23:19:48.048Z,4.35
2024-01-24T23:22:16.311Z,3.78
2024-01-24T23:24:44.523Z,4.10
2024-01-24T23:27:12.774Z,3.88
2024-01-24T23:29:40.946Z,3.97
2024-01-24T23:32:10.487Z,4.07
2024-01-24T23:34:38.823Z,4.28
2024-01-24T23:37:07.126Z,3.90
2024-01-24T23:39:35.386Z,3.70
2024-01-24T23:42:03.619Z,3.80
2024-01-24T23:44:31.789Z,3.70
2024-01-24T23:46:59.913Z,3.80
2024-01-24T23:49:29.777Z,3.70
2024-01-24T23:51:58.208Z,3.50
2024-01-24T23:54:26.460Z,3.78
2024-01-24T23:56:54.641Z,3.80
2024-01-24T23:59:22.820Z,3.58
